sensor_id;sensor_type;location;lat;lon;timestamp;P1;durP1;ratioP1;P2;durP2;ratioP2
22172;SDS011;11252;50.596;17.648;2023-02-01T00:01:04;1.30;;;1.20;;
22172;SDS011;11252;50.596;17.648;2023-02-01T00:03:32;2.23;;;1.40;;
22172;SDS011;11252;50.596;17.648;2023-02-01T00:06:00;3.07;;;1.70;;
22172;SDS011;11252;50.596;17.648;2023-02-01T00:08:27;1.73;;;1.33;;
22172;SDS011;11252;50.596;17.648;2023-02-01T00:11:03;2.27;;;1.67;;
22172;SDS011;11252;50.596;17.648;2023-02-01T00:13:35;1.70;;;1.60;;
22172;SDS011;11252;50.596;17.648;2023-02-01T00:16:08;1.60;;;1.50;;
22172;SDS011;11252;50.596;17.648;2023-02-01T00:18:43;3.23;;;1.77;;
22172;SDS011;11252;50.596;17.648;2023-02-01T00:21:11;2.27;;;1.80;;
22172;SDS011;11252;50.596;17.648;2023-02-01T00:23:40;2.23;;;1.80;;
22172;SDS011;11252;50.596;17.648;2023-02-01T00:26:11;4.77;;;1.70;;
22172;SDS011;11252;50.596;17.648;2023-02-01T00:29:00;3.93;;;1.40;;
22172;SDS011;11252;50.596;17.648;2023-02-01T00:31:29;3.53;;;1.57;;
22172;SDS011;11252;50.596;17.648;2023-02-01T00:33:57;3.60;;;1.27;;
22172;SDS011;11252;50.596;17.648;2023-02-01T00:36:25;3.20;;;1.13;;
22172;SDS011;11252;50.596;17.648;2023-02-01T00:38:52;0.53;;;0.50;;
22172;SDS011;11252;50.596;17.648;2023-02-01T00:41:20;0.73;;;0.50;;
22172;SDS011;11252;50.596;17.648;2023-02-01T00:43:48;2.83;;;0.50;;
22172;SDS011;11252;50.596;17.648;2023-02-01T00:46:17;2.23;;;0.50;;
22172;SDS011;11252;50.596;17.648;2023-02-01T00:48:46;0.53;;;0.40;;
22172;SDS011;11252;50.596;17.648;2023-02-01T00:51:16;1.50;;;1.00;;
22172;SDS011;11252;50.596;17.648;2023-02-01T00:53:45;1.90;;;1.37;;
22172;SDS011;11252;50.596;17.648;2023-02-01T00:56:12;2.93;;;1.10;;
22172;SDS011;11252;50.596;17.648;2023-02-01T00:58:40;2.93;;;0.90;;
22172;SDS011;11252;50.596;17.648;2023-02-01T01:03:45;2.83;;;1.30;;
22172;SDS011;11252;50.596;17.648;2023-02-01T01:06:15;2.63;;;0.70;;
22172;SDS011;11252;50.596;17.648;2023-02-01T01:08:44;1.63;;;0.70;;
22172;SDS011;11252;50.596;17.648;2023-02-01T01:11:13;3.30;;;0.77;;
22172;SDS011;11252;50.596;17.648;2023-02-01T01:13:42;0.77;;;0.60;;
22172;SDS011;11252;50.596;17.648;2023-02-01T01:16:10;2.50;;;0.60;;
22172;SDS011;11252;50.596;17.648;2023-02-01T01:18:37;2.47;;;0.50;;
22172;SDS011;11252;50.596;17.648;2023-02-01T01:21:05;0.67;;;0.63;;
22172;SDS011;11252;50.596;17.648;2023-02-01T01:23:34;0.60;;;0.60;;
22172;SDS011;11252;50.596;17.648;2023-02-01T01:26:44;2.20;;;0.80;;
22172;SDS011;11252;50.596;17.648;2023-02-01T01:28:56;0.87;;;0.50;;
22172;SDS011;11252;50.596;17.648;2023-02-01T01:31:25;0.40;;;0.40;;
22172;SDS011;11252;50.596;17.648;2023-02-01T01:33:54;0.93;;;0.60;;
22172;SDS011;11252;50.596;17.648;2023-02-01T01:36:23;0.50;;;0.50;;
22172;SDS011;11252;50.596;17.648;2023-02-01T01:38:51;2.10;;;0.70;;
22172;SDS011;11252;50.596;17.648;2023-02-01T01:41:23;1.00;;;0.67;;
22172;SDS011;11252;50.596;17.648;2023-02-01T01:46:32;3.83;;;0.90;;
22172;SDS011;11252;50.596;17.648;2023-02-01T01:49:11;2.20;;;0.70;;
22172;SDS011;11252;50.596;17.648;2023-02-01T01:51:44;3.33;;;1.13;;
22172;SDS011;11252;50.596;17.648;2023-02-01T01:54:32;2.50;;;1.43;;
22172;SDS011;11252;50.596;17.648;2023-02-01T01:57:06;2.77;;;1.30;;
22172;SDS011;11252;50.596;17.648;2023-02-01T01:59:41;4.27;;;1.10;;
22172;SDS011;11252;50.596;17.648;2023-02-01T02:02:12;4.87;;;1.50;;
22172;SDS011;11252;50.596;17.648;2023-02-01T02:04:40;4.03;;;1.20;;
22172;SDS011;11252;50.596;17.648;2023-02-01T02:07:10;5.03;;;2.10;;
22172;SDS011;11252;50.596;17.648;2023-02-01T02:09:41;5.23;;;1.33;;
22172;SDS011;11252;50.596;17.648;2023-02-01T02:12:25;4.17;;;1.60;;
22172;SDS011;11252;50.596;17.648;2023-02-01T02:14:52;4.60;;;1.30;;
22172;SDS011;11252;50.596;17.648;2023-02-01T02:22:53;2.53;;;1.30;;
22172;SDS011;11252;50.596;17.648;2023-02-01T02:34:32;5.87;;;1.70;;
22172;SDS011;11252;50.596;17.648;2023-02-01T02:39:57;3.00;;;1.40;;
22172;SDS011;11252;50.596;17.648;2023-02-01T02:46:21;4.73;;;2.33;;
22172;SDS011;11252;50.596;17.648;2023-02-01T02:49:20;3.27;;;1.53;;
22172;SDS011;11252;50.596;17.648;2023-02-01T02:51:49;9.97;;;2.40;;
22172;SDS011;11252;50.596;17.648;2023-02-01T02:54:41;7.70;;;2.07;;
22172;SDS011;11252;50.596;17.648;2023-02-01T03:00:09;18.17;;;13.67;;
22172;SDS011;11252;50.596;17.648;2023-02-01T03:02:59;28.83;;;23.17;;
22172;SDS011;11252;50.596;17.648;2023-02-01T03:05:46;19.07;;;11.70;;
22172;SDS011;11252;50.596;17.648;2023-02-01T03:08:20;16.73;;;11.57;;
22172;SDS011;11252;50.596;17.648;2023-02-01T03:13:51;4.77;;;2.90;;
22172;SDS011;11252;50.596;17.648;2023-02-01T03:19:01;8.60;;;2.60;;
22172;SDS011;11252;50.596;17.648;2023-02-01T03:26:38;6.37;;;2.30;;
22172;SDS011;11252;50.596;17.648;2023-02-01T03:29:13;4.97;;;2.10;;
22172;SDS011;11252;50.596;17.648;2023-02-01T03:31:50;8.50;;;3.03;;
22172;SDS011;11252;50.596;17.648;2023-02-01T03:34:17;10.87;;;2.50;;
22172;SDS011;11252;50.596;17.648;2023-02-01T03:36:51;8.47;;;2.23;;
22172;SDS011;11252;50.596;17.648;2023-02-01T03:42:12;11.30;;;2.50;;
22172;SDS011;11252;50.596;17.648;2023-02-01T03:44:52;6.17;;;1.90;;
22172;SDS011;11252;50.596;17.648;2023-02-01T03:47:40;10.37;;;2.70;;
22172;SDS011;11252;50.596;17.648;2023-02-01T03:50:12;7.13;;;2.27;;
22172;SDS011;11252;50.596;17.648;2023-02-01T03:52:44;6.27;;;2.53;;
22172;SDS011;11252;50.596;17.648;2023-02-01T03:55:20;9.73;;;2.40;;
22172;SDS011;11252;50.596;17.648;2023-02-01T03:57:52;4.90;;;1.77;;
22172;SDS011;11252;50.596;17.648;2023-02-01T04:00:24;12.00;;;2.20;;
22172;SDS011;11252;50.596;17.648;2023-02-01T04:02:53;9.70;;;2.20;;
22172;SDS011;11252;50.596;17.648;2023-02-01T04:05:21;11.03;;;2.60;;
22172;SDS011;11252;50.596;17.648;2023-02-01T04:07:48;11.10;;;2.20;;
22172;SDS011;11252;50.596;17.648;2023-02-01T04:10:15;11.17;;;2.03;;
22172;SDS011;11252;50.596;17.648;2023-02-01T04:12:45;7.97;;;2.30;;
22172;SDS011;11252;50.596;17.648;2023-02-01T04:15:12;15.60;;;2.97;;
22172;SDS011;11252;50.596;17.648;2023-02-01T04:17:40;8.43;;;2.77;;
22172;SDS011;11252;50.596;17.648;2023-02-01T04:20:07;7.17;;;2.27;;
22172;SDS011;11252;50.596;17.648;2023-02-01T04:22:35;9.67;;;2.80;;
22172;SDS011;11252;50.596;17.648;2023-02-01T04:25:02;11.83;;;2.80;;
22172;SDS011;11252;50.596;17.648;2023-02-01T04:27:32;10.27;;;2.10;;
22172;SDS011;11252;50.596;17.648;2023-02-01T04:29:59;9.00;;;2.50;;
22172;SDS011;11252;50.596;17.648;2023-02-01T04:32:26;8.63;;;1.73;;
22172;SDS011;11252;50.596;17.648;2023-02-01T04:34:53;9.60;;;2.20;;
22172;SDS011;11252;50.596;17.648;2023-02-01T04:37:21;7.07;;;1.60;;
22172;SDS011;11252;50.596;17.648;2023-02-01T04:39:48;9.43;;;3.40;;
22172;SDS011;11252;50.596;17.648;2023-02-01T04:42:15;11.13;;;2.13;;
22172;SDS011;11252;50.596;17.648;2023-02-01T04:44:43;9.13;;;2.43;;
22172;SDS011;11252;50.596;17.648;2023-02-01T04:47:10;7.97;;;2.23;;
22172;SDS011;11252;50.596;17.648;2023-02-01T04:49:37;12.10;;;2.67;;
22172;SDS011;11252;50.596;17.648;2023-02-01T04:52:04;9.70;;;2.23;;
22172;SDS011;11252;50.596;17.648;2023-02-01T04:54:31;6.17;;;1.90;;
22172;SDS011;11252;50.596;17.648;2023-02-01T04:56:59;5.97;;;2.03;;
22172;SDS011;11252;50.596;17.648;2023-02-01T04:59:27;7.57;;;1.80;;
22172;SDS011;11252;50.596;17.648;2023-02-01T05:01:55;6.60;;;2.47;;
22172;SDS011;11252;50.596;17.648;2023-02-01T05:04:22;8.77;;;1.83;;
22172;SDS011;11252;50.596;17.648;2023-02-01T05:06:49;6.07;;;1.77;;
22172;SDS011;11252;50.596;17.648;2023-02-01T05:09:17;9.97;;;2.40;;
22172;SDS011;11252;50.596;17.648;2023-02-01T05:11:44;9.30;;;2.13;;
22172;SDS011;11252;50.596;17.648;2023-02-01T05:14:30;6.47;;;2.30;;
22172;SDS011;11252;50.596;17.648;2023-02-01T05:16:57;8.40;;;2.20;;
22172;SDS011;11252;50.596;17.648;2023-02-01T05:19:24;10.47;;;2.70;;
22172;SDS011;11252;50.596;17.648;2023-02-01T05:21:51;6.10;;;2.40;;
22172;SDS011;11252;50.596;17.648;2023-02-01T05:24:19;2.47;;;1.23;;
22172;SDS011;11252;50.596;17.648;2023-02-01T05:26:47;9.07;;;2.10;;
22172;SDS011;11252;50.596;17.648;2023-02-01T05:29:15;4.83;;;2.10;;
22172;SDS011;11252;50.596;17.648;2023-02-01T05:31:44;6.93;;;1.90;;
22172;SDS011;11252;50.596;17.648;2023-02-01T05:34:13;4.57;;;1.83;;
22172;SDS011;11252;50.596;17.648;2023-02-01T05:36:41;5.93;;;2.07;;
22172;SDS011;11252;50.596;17.648;2023-02-01T05:39:08;7.40;;;2.37;;
22172;SDS011;11252;50.596;17.648;2023-02-01T05:41:36;7.83;;;2.30;;
22172;SDS011;11252;50.596;17.648;2023-02-01T05:44:04;8.87;;;2.53;;
22172;SDS011;11252;50.596;17.648;2023-02-01T05:46:36;8.97;;;2.80;;
22172;SDS011;11252;50.596;17.648;2023-02-01T05:49:04;7.33;;;3.40;;
22172;SDS011;11252;50.596;17.648;2023-02-01T05:51:31;9.47;;;4.93;;
22172;SDS011;11252;50.596;17.648;2023-02-01T05:53:59;14.67;;;3.77;;
22172;SDS011;11252;50.596;17.648;2023-02-01T05:56:27;14.60;;;4.20;;
22172;SDS011;11252;50.596;17.648;2023-02-01T05:58:54;9.30;;;3.57;;
22172;SDS011;11252;50.596;17.648;2023-02-01T06:01:21;8.03;;;3.30;;
22172;SDS011;11252;50.596;17.648;2023-02-01T06:03:49;10.23;;;2.93;;
22172;SDS011;11252;50.596;17.648;2023-02-01T06:06:16;8.63;;;3.13;;
22172;SDS011;11252;50.596;17.648;2023-02-01T06:08:46;9.13;;;3.30;;
22172;SDS011;11252;50.596;17.648;2023-02-01T06:11:13;8.37;;;2.83;;
22172;SDS011;11252;50.596;17.648;2023-02-01T06:13:57;6.73;;;2.57;;
22172;SDS011;11252;50.596;17.648;2023-02-01T06:16:24;6.30;;;2.63;;
22172;SDS011;11252;50.596;17.648;2023-02-01T06:18:51;9.60;;;2.67;;
22172;SDS011;11252;50.596;17.648;2023-02-01T06:21:19;8.13;;;2.97;;
22172;SDS011;11252;50.596;17.648;2023-02-01T06:23:51;6.60;;;2.60;;
22172;SDS011;11252;50.596;17.648;2023-02-01T06:26:19;5.20;;;2.33;;
22172;SDS011;11252;50.596;17.648;2023-02-01T06:28:46;4.03;;;2.03;;
22172;SDS011;11252;50.596;17.648;2023-02-01T06:31:14;6.80;;;3.00;;
22172;SDS011;11252;50.596;17.648;2023-02-01T06:33:41;4.53;;;1.93;;
22172;SDS011;11252;50.596;17.648;2023-02-01T06:36:09;6.07;;;2.47;;
22172;SDS011;11252;50.596;17.648;2023-02-01T06:38:38;5.73;;;2.97;;
22172;SDS011;11252;50.596;17.648;2023-02-01T06:41:06;9.40;;;2.90;;
22172;SDS011;11252;50.596;17.648;2023-02-01T06:43:33;8.00;;;2.63;;
22172;SDS011;11252;50.596;17.648;2023-02-01T06:46:01;8.97;;;2.90;;
22172;SDS011;11252;50.596;17.648;2023-02-01T06:48:30;8.37;;;2.50;;
22172;SDS011;11252;50.596;17.648;2023-02-01T06:50:58;6.27;;;2.37;;
22172;SDS011;11252;50.596;17.648;2023-02-01T06:53:26;3.47;;;2.07;;
22172;SDS011;11252;50.596;17.648;2023-02-01T06:56:02;5.20;;;2.47;;
22172;SDS011;11252;50.596;17.648;2023-02-01T06:58:30;5.80;;;2.53;;
22172;SDS011;11252;50.596;17.648;2023-02-01T07:01:06;6.30;;;2.10;;
22172;SDS011;11252;50.596;17.648;2023-02-01T07:03:34;5.80;;;2.23;;
22172;SDS011;11252;50.596;17.648;2023-02-01T07:06:02;4.40;;;1.90;;
22172;SDS011;11252;50.596;17.648;2023-02-01T07:08:31;6.97;;;2.40;;
22172;SDS011;11252;50.596;17.648;2023-02-01T07:11:01;6.83;;;2.07;;
22172;SDS011;11252;50.596;17.648;2023-02-01T07:13:30;5.23;;;2.40;;
22172;SDS011;11252;50.596;17.648;2023-02-01T07:15:58;3.37;;;1.90;;
22172;SDS011;11252;50.596;17.648;2023-02-01T07:18:27;8.83;;;2.43;;
22172;SDS011;11252;50.596;17.648;2023-02-01T07:20:55;7.03;;;2.77;;
22172;SDS011;11252;50.596;17.648;2023-02-01T07:23:22;5.30;;;2.63;;
22172;SDS011;11252;50.596;17.648;2023-02-01T07:25:57;8.90;;;3.23;;
22172;SDS011;11252;50.596;17.648;2023-02-01T07:28:27;3.30;;;1.60;;
22172;SDS011;11252;50.596;17.648;2023-02-01T07:31:06;6.43;;;2.37;;
22172;SDS011;11252;50.596;17.648;2023-02-01T07:33:35;5.53;;;2.33;;
22172;SDS011;11252;50.596;17.648;2023-02-01T07:36:03;8.70;;;2.70;;
22172;SDS011;11252;50.596;17.648;2023-02-01T07:38:33;4.10;;;1.90;;
22172;SDS011;11252;50.596;17.648;2023-02-01T07:41:02;10.67;;;3.00;;
22172;SDS011;11252;50.596;17.648;2023-02-01T07:43:31;8.10;;;2.40;;
22172;SDS011;11252;50.596;17.648;2023-02-01T07:45:59;5.93;;;3.03;;
22172;SDS011;11252;50.596;17.648;2023-02-01T07:48:27;6.13;;;2.70;;
22172;SDS011;11252;50.596;17.648;2023-02-01T07:50:58;2.80;;;1.80;;
22172;SDS011;11252;50.596;17.648;2023-02-01T07:53:34;5.57;;;1.87;;
22172;SDS011;11252;50.596;17.648;2023-02-01T07:56:02;5.20;;;2.23;;
22172;SDS011;11252;50.596;17.648;2023-02-01T07:58:30;3.10;;;1.90;;
22172;SDS011;11252;50.596;17.648;2023-02-01T08:00:57;5.60;;;2.30;;
22172;SDS011;11252;50.596;17.648;2023-02-01T08:03:43;7.13;;;3.10;;
22172;SDS011;11252;50.596;17.648;2023-02-01T08:06:10;5.97;;;2.63;;
22172;SDS011;11252;50.596;17.648;2023-02-01T08:08:38;6.93;;;3.53;;
22172;SDS011;11252;50.596;17.648;2023-02-01T08:11:06;9.93;;;3.23;;
22172;SDS011;11252;50.596;17.648;2023-02-01T08:13:34;5.37;;;3.50;;
22172;SDS011;11252;50.596;17.648;2023-02-01T08:16:03;5.47;;;2.60;;
22172;SDS011;11252;50.596;17.648;2023-02-01T08:18:32;9.67;;;2.43;;
22172;SDS011;11252;50.596;17.648;2023-02-01T08:21:13;5.53;;;2.20;;
22172;SDS011;11252;50.596;17.648;2023-02-01T08:23:44;5.83;;;2.30;;
22172;SDS011;11252;50.596;17.648;2023-02-01T08:26:15;9.47;;;3.30;;
22172;SDS011;11252;50.596;17.648;2023-02-01T08:28:51;6.33;;;3.47;;
22172;SDS011;11252;50.596;17.648;2023-02-01T08:31:24;5.73;;;4.03;;
22172;SDS011;11252;50.596;17.648;2023-02-01T08:33:54;4.40;;;2.40;;
22172;SDS011;11252;50.596;17.648;2023-02-01T08:36:27;9.43;;;2.43;;
22172;SDS011;11252;50.596;17.648;2023-02-01T08:38:56;5.03;;;2.03;;
22172;SDS011;11252;50.596;17.648;2023-02-01T08:41:24;8.43;;;2.73;;
22172;SDS011;11252;50.596;17.648;2023-02-01T08:43:54;8.40;;;2.73;;
22172;SDS011;11252;50.596;17.648;2023-02-01T08:46:22;6.87;;;3.03;;
22172;SDS011;11252;50.596;17.648;2023-02-01T08:48:50;5.23;;;2.03;;
22172;SDS011;11252;50.596;17.648;2023-02-01T08:51:19;8.00;;;3.07;;
22172;SDS011;11252;50.596;17.648;2023-02-01T08:53:47;9.97;;;3.23;;
22172;SDS011;11252;50.596;17.648;2023-02-01T08:56:15;8.67;;;2.57;;
22172;SDS011;11252;50.596;17.648;2023-02-01T08:58:44;8.37;;;3.20;;
22172;SDS011;11252;50.596;17.648;2023-02-01T09:01:15;4.97;;;2.63;;
22172;SDS011;11252;50.596;17.648;2023-02-01T09:03:43;10.27;;;3.17;;
22172;SDS011;11252;50.596;17.648;2023-02-01T09:06:12;8.43;;;3.33;;
22172;SDS011;11252;50.596;17.648;2023-02-01T09:08:41;8.63;;;3.30;;
22172;SDS011;11252;50.596;17.648;2023-02-01T09:11:13;4.63;;;2.63;;
22172;SDS011;11252;50.596;17.648;2023-02-01T09:13:42;12.03;;;4.33;;
22172;SDS011;11252;50.596;17.648;2023-02-01T09:16:09;6.50;;;3.50;;
22172;SDS011;11252;50.596;17.648;2023-02-01T09:18:37;12.07;;;3.83;;
22172;SDS011;11252;50.596;17.648;2023-02-01T09:21:21;9.20;;;3.80;;
22172;SDS011;11252;50.596;17.648;2023-02-01T09:23:50;6.93;;;3.87;;
22172;SDS011;11252;50.596;17.648;2023-02-01T09:26:18;12.70;;;4.17;;
22172;SDS011;11252;50.596;17.648;2023-02-01T09:28:55;9.67;;;3.87;;
22172;SDS011;11252;50.596;17.648;2023-02-01T09:31:23;8.83;;;3.90;;
22172;SDS011;11252;50.596;17.648;2023-02-01T09:33:50;11.83;;;3.73;;
22172;SDS011;11252;50.596;17.648;2023-02-01T09:36:17;9.53;;;3.67;;
22172;SDS011;11252;50.596;17.648;2023-02-01T09:38:46;5.13;;;3.07;;
22172;SDS011;11252;50.596;17.648;2023-02-01T09:44:00;6.80;;;2.80;;
22172;SDS011;11252;50.596;17.648;2023-02-01T09:46:43;8.63;;;4.33;;
22172;SDS011;11252;50.596;17.648;2023-02-01T09:49:29;5.67;;;2.70;;
22172;SDS011;11252;50.596;17.648;2023-02-01T09:52:10;5.83;;;3.00;;
22172;SDS011;11252;50.596;17.648;2023-02-01T09:54:42;7.70;;;2.90;;
22172;SDS011;11252;50.596;17.648;2023-02-01T09:57:17;6.83;;;2.80;;
22172;SDS011;11252;50.596;17.648;2023-02-01T09:59:57;4.87;;;3.60;;
22172;SDS011;11252;50.596;17.648;2023-02-01T10:02:30;6.70;;;2.50;;
22172;SDS011;11252;50.596;17.648;2023-02-01T10:05:03;5.57;;;3.00;;
22172;SDS011;11252;50.596;17.648;2023-02-01T10:10:28;4.07;;;2.73;;
22172;SDS011;11252;50.596;17.648;2023-02-01T10:14:17;6.50;;;2.30;;
22172;SDS011;11252;50.596;17.648;2023-02-01T10:21:55;3.67;;;2.30;;
22172;SDS011;11252;50.596;17.648;2023-02-01T10:24:34;5.07;;;2.83;;
22172;SDS011;11252;50.596;17.648;2023-02-01T10:27:22;4.07;;;2.30;;
22172;SDS011;11252;50.596;17.648;2023-02-01T10:29:59;3.53;;;1.90;;
22172;SDS011;11252;50.596;17.648;2023-02-01T10:32:31;4.27;;;1.93;;
22172;SDS011;11252;50.596;17.648;2023-02-01T10:35:04;3.23;;;2.20;;
22172;SDS011;11252;50.596;17.648;2023-02-01T10:37:40;5.03;;;2.13;;
22172;SDS011;11252;50.596;17.648;2023-02-01T10:40:19;5.43;;;2.20;;
22172;SDS011;11252;50.596;17.648;2023-02-01T10:42:58;4.47;;;2.20;;
22172;SDS011;11252;50.596;17.648;2023-02-01T10:45:32;2.80;;;1.90;;
22172;SDS011;11252;50.596;17.648;2023-02-01T10:48:00;4.30;;;2.73;;
22172;SDS011;11252;50.596;17.648;2023-02-01T10:53:13;4.27;;;2.13;;
22172;SDS011;11252;50.596;17.648;2023-02-01T10:58:14;7.37;;;2.90;;
22172;SDS011;11252;50.596;17.648;2023-02-01T11:00:45;3.47;;;2.20;;
22172;SDS011;11252;50.596;17.648;2023-02-01T11:03:33;6.87;;;3.17;;
22172;SDS011;11252;50.596;17.648;2023-02-01T11:06:11;5.30;;;2.80;;
22172;SDS011;11252;50.596;17.648;2023-02-01T11:08:45;4.47;;;2.60;;
22172;SDS011;11252;50.596;17.648;2023-02-01T11:11:15;5.63;;;2.93;;
22172;SDS011;11252;50.596;17.648;2023-02-01T11:13:44;3.97;;;2.73;;
22172;SDS011;11252;50.596;17.648;2023-02-01T11:16:19;5.60;;;2.90;;
22172;SDS011;11252;50.596;17.648;2023-02-01T11:18:47;5.80;;;2.77;;
22172;SDS011;11252;50.596;17.648;2023-02-01T11:21:21;5.43;;;3.00;;
22172;SDS011;11252;50.596;17.648;2023-02-01T11:23:49;4.27;;;2.70;;
22172;SDS011;11252;50.596;17.648;2023-02-01T11:28:51;5.07;;;3.07;;
22172;SDS011;11252;50.596;17.648;2023-02-01T11:31:30;5.77;;;3.00;;
22172;SDS011;11252;50.596;17.648;2023-02-01T11:34:12;5.33;;;3.47;;
22172;SDS011;11252;50.596;17.648;2023-02-01T11:37:02;7.63;;;3.10;;
22172;SDS011;11252;50.596;17.648;2023-02-01T11:39:31;6.37;;;3.03;;
22172;SDS011;11252;50.596;17.648;2023-02-01T11:42:14;6.90;;;3.17;;
22172;SDS011;11252;50.596;17.648;2023-02-01T11:44:43;6.17;;;2.50;;
22172;SDS011;11252;50.596;17.648;2023-02-01T11:47:25;4.67;;;2.37;;
22172;SDS011;11252;50.596;17.648;2023-02-01T11:50:02;4.30;;;2.83;;
22172;SDS011;11252;50.596;17.648;2023-02-01T11:52:50;4.90;;;2.00;;
22172;SDS011;11252;50.596;17.648;2023-02-01T11:55:56;2.30;;;1.97;;
22172;SDS011;11252;50.596;17.648;2023-02-01T12:09:41;1.70;;;1.60;;
22172;SDS011;11252;50.596;17.648;2023-02-01T12:12:38;3.27;;;1.23;;
22172;SDS011;11252;50.596;17.648;2023-02-01T12:31:06;1.80;;;1.70;;
22172;SDS011;11252;50.596;17.648;2023-02-01T12:36:41;2.10;;;1.83;;
22172;SDS011;11252;50.596;17.648;2023-02-01T12:42:27;3.13;;;2.07;;
22172;SDS011;11252;50.596;17.648;2023-02-01T12:45:24;3.40;;;1.90;;
22172;SDS011;11252;50.596;17.648;2023-02-01T12:48:01;3.10;;;2.30;;
22172;SDS011;11252;50.596;17.648;2023-02-01T12:50:47;3.27;;;2.13;;
22172;SDS011;11252;50.596;17.648;2023-02-01T12:56:00;4.27;;;3.20;;
22172;SDS011;11252;50.596;17.648;2023-02-01T13:01:06;5.30;;;3.00;;
22172;SDS011;11252;50.596;17.648;2023-02-01T13:06:34;7.50;;;6.10;;
22172;SDS011;11252;50.596;17.648;2023-02-01T13:09:22;4.70;;;3.37;;
22172;SDS011;11252;50.596;17.648;2023-02-01T13:11:57;4.70;;;2.43;;
22172;SDS011;11252;50.596;17.648;2023-02-01T13:14:36;4.60;;;3.63;;
22172;SDS011;11252;50.596;17.648;2023-02-01T13:17:18;3.70;;;2.63;;
22172;SDS011;11252;50.596;17.648;2023-02-01T13:19:57;2.37;;;2.17;;
22172;SDS011;11252;50.596;17.648;2023-02-01T13:27:37;5.50;;;3.53;;
22172;SDS011;11252;50.596;17.648;2023-02-01T13:30:18;4.57;;;2.67;;
22172;SDS011;11252;50.596;17.648;2023-02-01T13:41:28;4.60;;;3.13;;
22172;SDS011;11252;50.596;17.648;2023-02-01T13:43:59;2.97;;;2.33;;
22172;SDS011;11252;50.596;17.648;2023-02-01T13:46:42;3.47;;;2.00;;
22172;SDS011;11252;50.596;17.648;2023-02-01T13:49:24;2.70;;;1.80;;
22172;SDS011;11252;50.596;17.648;2023-02-01T13:51:58;2.00;;;1.60;;
22172;SDS011;11252;50.596;17.648;2023-02-01T13:54:27;4.37;;;1.90;;
22172;SDS011;11252;50.596;17.648;2023-02-01T13:56:58;2.37;;;1.63;;
22172;SDS011;11252;50.596;17.648;2023-02-01T13:59:37;2.23;;;1.67;;
22172;SDS011;11252;50.596;17.648;2023-02-01T14:05:03;2.97;;;1.80;;
22172;SDS011;11252;50.596;17.648;2023-02-01T14:07:31;3.93;;;1.77;;
22172;SDS011;11252;50.596;17.648;2023-02-01T14:10:31;3.83;;;2.03;;
22172;SDS011;11252;50.596;17.648;2023-02-01T14:13:05;2.67;;;1.70;;
22172;SDS011;11252;50.596;17.648;2023-02-01T14:15:40;3.60;;;2.73;;
22172;SDS011;11252;50.596;17.648;2023-02-01T14:24:01;4.50;;;2.30;;
22172;SDS011;11252;50.596;17.648;2023-02-01T14:29:43;4.23;;;2.63;;
22172;SDS011;11252;50.596;17.648;2023-02-01T14:32:21;3.60;;;2.37;;
22172;SDS011;11252;50.596;17.648;2023-02-01T14:34:53;3.23;;;1.90;;
22172;SDS011;11252;50.596;17.648;2023-02-01T14:37:24;3.73;;;2.03;;
22172;SDS011;11252;50.596;17.648;2023-02-01T14:42:38;5.47;;;1.63;;
22172;SDS011;11252;50.596;17.648;2023-02-01T14:47:46;5.37;;;1.70;;
22172;SDS011;11252;50.596;17.648;2023-02-01T14:50:29;5.70;;;1.60;;
22172;SDS011;11252;50.596;17.648;2023-02-01T15:00:55;2.77;;;1.50;;
22172;SDS011;11252;50.596;17.648;2023-02-01T15:03:35;3.87;;;1.37;;
22172;SDS011;11252;50.596;17.648;2023-02-01T15:06:03;3.37;;;1.50;;
22172;SDS011;11252;50.596;17.648;2023-02-01T15:08:34;3.47;;;1.53;;
22172;SDS011;11252;50.596;17.648;2023-02-01T15:11:06;8.23;;;2.20;;
22172;SDS011;11252;50.596;17.648;2023-02-01T15:13:40;2.87;;;1.63;;
22172;SDS011;11252;50.596;17.648;2023-02-01T15:16:14;3.03;;;1.27;;
22172;SDS011;11252;50.596;17.648;2023-02-01T15:18:42;3.80;;;1.50;;
22172;SDS011;11252;50.596;17.648;2023-02-01T15:21:21;2.57;;;1.63;;
22172;SDS011;11252;50.596;17.648;2023-02-01T15:24:09;5.77;;;1.67;;
22172;SDS011;11252;50.596;17.648;2023-02-01T15:26:38;4.40;;;1.70;;
22172;SDS011;11252;50.596;17.648;2023-02-01T15:29:08;3.10;;;1.60;;
22172;SDS011;11252;50.596;17.648;2023-02-01T15:31:39;3.87;;;1.97;;
22172;SDS011;11252;50.596;17.648;2023-02-01T15:34:13;4.37;;;1.83;;
22172;SDS011;11252;50.596;17.648;2023-02-01T15:36:40;4.63;;;1.77;;
22172;SDS011;11252;50.596;17.648;2023-02-01T15:39:27;3.67;;;1.97;;
22172;SDS011;11252;50.596;17.648;2023-02-01T15:41:58;9.17;;;2.33;;
22172;SDS011;11252;50.596;17.648;2023-02-01T15:47:28;5.83;;;1.97;;
22172;SDS011;11252;50.596;17.648;2023-02-01T15:49:58;3.80;;;1.90;;
22172;SDS011;11252;50.596;17.648;2023-02-01T15:52:35;6.53;;;2.40;;
22172;SDS011;11252;50.596;17.648;2023-02-01T15:55:07;7.50;;;2.10;;
22172;SDS011;11252;50.596;17.648;2023-02-01T15:57:47;5.37;;;2.33;;
22172;SDS011;11252;50.596;17.648;2023-02-01T16:00:21;5.73;;;2.47;;
22172;SDS011;11252;50.596;17.648;2023-02-01T16:03:00;6.03;;;2.80;;
22172;SDS011;11252;50.596;17.648;2023-02-01T16:10:43;19.20;;;12.77;;
22172;SDS011;11252;50.596;17.648;2023-02-01T16:13:13;9.47;;;7.07;;
22172;SDS011;11252;50.596;17.648;2023-02-01T16:15:42;7.20;;;4.13;;
22172;SDS011;11252;50.596;17.648;2023-02-01T16:18:11;8.87;;;5.13;;
22172;SDS011;11252;50.596;17.648;2023-02-01T16:20:43;7.20;;;4.10;;
22172;SDS011;11252;50.596;17.648;2023-02-01T16:23:11;8.87;;;4.37;;
22172;SDS011;11252;50.596;17.648;2023-02-01T16:25:38;6.67;;;3.87;;
22172;SDS011;11252;50.596;17.648;2023-02-01T16:28:06;15.20;;;11.90;;
22172;SDS011;11252;50.596;17.648;2023-02-01T16:30:34;7.90;;;4.80;;
22172;SDS011;11252;50.596;17.648;2023-02-01T16:33:02;6.70;;;3.43;;
22172;SDS011;11252;50.596;17.648;2023-02-01T16:35:36;6.07;;;3.10;;
22172;SDS011;11252;50.596;17.648;2023-02-01T16:38:04;14.37;;;8.37;;
22172;SDS011;11252;50.596;17.648;2023-02-01T16:40:39;7.53;;;5.43;;
22172;SDS011;11252;50.596;17.648;2023-02-01T16:43:15;7.27;;;3.70;;
22172;SDS011;11252;50.596;17.648;2023-02-01T16:45:47;7.17;;;3.37;;
22172;SDS011;11252;50.596;17.648;2023-02-01T16:50:51;5.87;;;3.30;;
22172;SDS011;11252;50.596;17.648;2023-02-01T16:53:21;12.37;;;9.43;;
22172;SDS011;11252;50.596;17.648;2023-02-01T16:55:49;27.87;;;12.93;;
22172;SDS011;11252;50.596;17.648;2023-02-01T16:58:19;11.30;;;6.00;;
22172;SDS011;11252;50.596;17.648;2023-02-01T17:00:47;8.67;;;4.07;;
22172;SDS011;11252;50.596;17.648;2023-02-01T17:03:15;12.40;;;6.57;;
22172;SDS011;11252;50.596;17.648;2023-02-01T17:05:46;7.10;;;4.07;;
22172;SDS011;11252;50.596;17.648;2023-02-01T17:08:17;13.53;;;6.47;;
22172;SDS011;11252;50.596;17.648;2023-02-01T17:10:51;10.97;;;5.33;;
22172;SDS011;11252;50.596;17.648;2023-02-01T17:13:19;7.23;;;3.47;;
22172;SDS011;11252;50.596;17.648;2023-02-01T17:15:50;5.43;;;3.67;;
22172;SDS011;11252;50.596;17.648;2023-02-01T17:18:21;10.37;;;4.80;;
22172;SDS011;11252;50.596;17.648;2023-02-01T17:20:49;30.13;;;13.30;;
22172;SDS011;11252;50.596;17.648;2023-02-01T17:23:19;38.53;;;18.90;;
22172;SDS011;11252;50.596;17.648;2023-02-01T17:25:46;18.33;;;10.03;;
22172;SDS011;11252;50.596;17.648;2023-02-01T17:28:14;9.87;;;5.10;;
22172;SDS011;11252;50.596;17.648;2023-02-01T17:30:41;24.50;;;16.90;;
22172;SDS011;11252;50.596;17.648;2023-02-01T17:33:18;6.67;;;4.03;;
22172;SDS011;11252;50.596;17.648;2023-02-01T17:35:53;5.23;;;2.97;;